createdAt,value
2023-10-13T00:00:17.845Z,23.61
2023-10-13T00:01:17.993Z,23.63
2023-10-13T00:02:17.937Z,23.61
2023-10-13T00:03:17.891Z,23.63
2023-10-13T00:04:17.982Z,23.61
2023-10-13T00:05:17.860Z,23.63
2023-10-13T00:06:17.801Z,23.61
2023-10-13T00:07:17.810Z,23.61
2023-10-13T00:08:17.788Z,23.61
2023-10-13T00:09:17.782Z,23.61
2023-10-13T00:10:17.849Z,23.60
2023-10-13T00:11:17.790Z,23.60
2023-10-13T00:12:17.755Z,23.60
2023-10-13T00:13:17.744Z,23.60
2023-10-13T00:14:17.729Z,23.60
2023-10-13T00:15:17.768Z,23.58
2023-10-13T00:16:17.795Z,23.58
2023-10-13T00:17:17.738Z,23.58
2023-10-13T00:18:17.659Z,23.58
2023-10-13T00:19:17.747Z,23.58
2023-10-13T00:20:17.679Z,23.58
2023-10-13T00:21:17.639Z,23.60
2023-10-13T00:22:17.766Z,23.57
2023-10-13T00:23:17.632Z,23.57
2023-10-13T00:24:17.769Z,23.58
2023-10-13T00:25:17.635Z,23.57
2023-10-13T00:26:17.606Z,23.55
2023-10-13T00:27:17.603Z,23.57
2023-10-13T00:28:17.633Z,23.57
2023-10-13T00:29:17.637Z,23.55
2023-10-13T00:30:17.574Z,23.55
2023-10-13T00:31:17.624Z,23.55
2023-10-13T00:32:17.549Z,23.55
2023-10-13T00:33:17.528Z,23.54
2023-10-13T00:34:17.531Z,23.55
2023-10-13T00:35:17.482Z,23.54
2023-10-13T00:36:17.516Z,23.54
2023-10-13T00:37:17.552Z,23.54
2023-10-13T00:38:17.475Z,23.54
2023-10-13T00:39:17.507Z,23.54
2023-10-13T00:40:17.553Z,23.54
2023-10-13T00:41:17.420Z,23.54
2023-10-13T00:42:17.452Z,23.54
2023-10-13T00:43:17.458Z,23.54
2023-10-13T00:44:17.395Z,23.53
2023-10-13T00:45:17.454Z,23.53
2023-10-13T00:46:17.454Z,23.53
2023-10-13T00:47:17.391Z,23.53
2023-10-13T00:48:17.394Z,23.53
2023-10-13T00:49:17.410Z,23.53
2023-10-13T00:50:17.394Z,23.53
2023-10-13T00:51:17.337Z,23.50
2023-10-13T00:52:17.337Z,23.48
2023-10-13T00:53:17.336Z,23.51
2023-10-13T00:54:17.320Z,23.50
2023-10-13T00:55:17.363Z,23.50
2023-10-13T00:56:17.305Z,23.50
2023-10-13T00:57:17.323Z,23.50
2023-10-13T00:58:17.269Z,23.50
2023-10-13T00:59:17.267Z,23.50
2023-10-13T01:00:17.237Z,23.48
2023-10-13T01:01:17.266Z,23.50
2023-10-13T01:02:17.334Z,23.48
2023-10-13T01:03:17.240Z,23.50
2023-10-13T01:04:17.285Z,23.48
2023-10-13T01:05:17.301Z,23.48
2023-10-13T01:06:17.231Z,23.48
2023-10-13T01:07:17.272Z,23.47
2023-10-13T01:08:17.164Z,23.48
2023-10-13T01:09:17.177Z,23.47
2023-10-13T01:10:17.175Z,23.47
2023-10-13T01:11:17.137Z,23.46
2023-10-13T01:12:17.205Z,23.46
2023-10-13T01:13:17.174Z,23.47
2023-10-13T01:14:17.099Z,23.47
2023-10-13T01:15:17.121Z,23.46
2023-10-13T01:16:17.225Z,23.43
2023-10-13T01:17:17.133Z,23.46
2023-10-13T01:18:17.091Z,23.46
2023-10-13T01:19:17.091Z,23.46
2023-10-13T01:20:17.064Z,23.46
2023-10-13T01:21:17.032Z,23.43
2023-10-13T01:22:17.071Z,23.43
2023-10-13T01:23:17.033Z,23.43
2023-10-13T01:24:17.005Z,23.42
2023-10-13T01:25:17.043Z,23.43
2023-10-13T01:26:17.018Z,23.43
2023-10-13T01:27:17.008Z,23.42
2023-10-13T01:28:17.080Z,23.42
2023-10-13T01:29:16.966Z,23.42
2023-10-13T01:30:17.003Z,23.40
2023-10-13T01:31:16.987Z,23.42
2023-10-13T01:32:17.065Z,23.40
2023-10-13T01:33:17.013Z,23.40
2023-10-13T01:34:16.948Z,23.40
2023-10-13T01:35:16.906Z,23.39
2023-10-13T01:36:16.914Z,23.39
2023-10-13T01:37:16.921Z,23.40
2023-10-13T01:38:16.882Z,23.40
2023-10-13T01:39:16.872Z,23.39
2023-10-13T01:40:16.870Z,23.39
2023-10-13T01:41:16.814Z,23.39
2023-10-13T01:42:16.870Z,23.39
2023-10-13T01:43:16.866Z,23.38
2023-10-13T01:44:16.802Z,23.39
2023-10-13T01:45:16.776Z,23.39
2023-10-13T01:46:16.825Z,23.38
2023-10-13T01:47:16.755Z,23.39
2023-10-13T01:48:16.788Z,23.38
2023-10-13T01:49:16.785Z,23.36
2023-10-13T01:50:16.747Z,23.38
2023-10-13T01:51:16.724Z,23.38
2023-10-13T01:52:16.934Z,23.38
2023-10-13T01:53:16.681Z,23.36
2023-10-13T01:54:16.790Z,23.35
2023-10-13T01:55:16.729Z,23.36
2023-10-13T01:56:16.698Z,23.35
2023-10-13T01:57:16.678Z,23.35
2023-10-13T01:58:16.952Z,23.35
2023-10-13T01:59:16.727Z,23.35
2023-10-13T02:00:16.642Z,23.33
2023-10-13T02:01:16.723Z,23.35
2023-10-13T02:02:16.699Z,23.33
2023-10-13T02:03:16.786Z,23.35
2023-10-13T02:04:16.604Z,23.33
2023-10-13T02:05:16.646Z,23.33
2023-10-13T02:06:16.566Z,23.32
2023-10-13T02:07:16.674Z,23.33
2023-10-13T02:08:16.603Z,23.32
2023-10-13T02:09:16.518Z,23.33
2023-10-13T02:10:16.536Z,23.32
2023-10-13T02:11:16.515Z,23.32
2023-10-13T02:12:16.515Z,23.32
2023-10-13T02:13:16.545Z,23.32
2023-10-13T02:14:16.462Z,23.31
2023-10-13T02:15:16.451Z,23.31
2023-10-13T02:16:16.551Z,23.31
2023-10-13T02:17:16.529Z,23.31
2023-10-13T02:18:16.480Z,23.28
2023-10-13T02:19:16.429Z,23.28
2023-10-13T02:20:16.484Z,23.28
2023-10-13T02:21:16.410Z,23.28
2023-10-13T02:22:16.416Z,23.28
2023-10-13T02:23:16.394Z,23.27
2023-10-13T02:24:16.364Z,23.28
2023-10-13T02:25:16.431Z,23.28
2023-10-13T02:26:16.361Z,23.27
2023-10-13T02:27:16.367Z,23.25
2023-10-13T02:28:16.358Z,23.28
2023-10-13T02:29:16.350Z,23.25
2023-10-13T02:30:16.323Z,23.25
2023-10-13T02:31:16.456Z,23.25
2023-10-13T02:32:16.345Z,23.25
2023-10-13T02:33:16.327Z,23.23
2023-10-13T02:34:16.277Z,23.23
2023-10-13T02:35:16.270Z,23.23
2023-10-13T02:36:16.254Z,23.23
2023-10-13T02:37:16.321Z,23.25
2023-10-13T02:38:16.210Z,23.23
2023-10-13T02:39:16.255Z,23.23
2023-10-13T02:40:16.230Z,23.22
2023-10-13T02:41:16.219Z,23.23
2023-10-13T02:42:16.184Z,23.20
2023-10-13T02:43:16.799Z,23.22
2023-10-13T02:44:16.169Z,23.22
2023-10-13T02:45:16.139Z,23.20
2023-10-13T02:46:17.008Z,23.20
2023-10-13T02:47:16.226Z,23.22
2023-10-13T02:48:16.191Z,23.20
2023-10-13T02:49:16.111Z,23.20
2023-10-13T02:50:16.152Z,23.20
2023-10-13T02:51:16.100Z,23.20
2023-10-13T02:52:16.292Z,23.19
2023-10-13T02:53:16.081Z,23.19
2023-10-13T02:54:16.049Z,23.20
2023-10-13T02:55:16.165Z,23.20
2023-10-13T02:56:16.042Z,23.19
2023-10-13T02:57:16.053Z,23.17
2023-10-13T02:58:16.072Z,23.17
2023-10-13T02:59:15.998Z,23.17
2023-10-13T03:00:15.999Z,23.17
2023-10-13T03:01:16.020Z,23.16
2023-10-13T03:02:16.000Z,23.16
2023-10-13T03:03:16.020Z,23.15
2023-10-13T03:04:15.970Z,23.16
2023-10-13T03:05:16.004Z,23.16
2023-10-13T03:06:15.967Z,23.17
2023-10-13T03:07:16.016Z,23.16
2023-10-13T03:08:15.954Z,23.16
2023-10-13T03:09:16.104Z,23.16
2023-10-13T03:10:15.915Z,23.15
2023-10-13T03:11:15.905Z,23.15
2023-10-13T03:12:15.878Z,23.15
2023-10-13T03:13:15.922Z,23.15
2023-10-13T03:14:15.946Z,23.15
2023-10-13T03:15:15.866Z,23.13
2023-10-13T03:16:15.911Z,23.15
2023-10-13T03:17:15.944Z,23.13
2023-10-13T03:18:15.858Z,23.12
2023-10-13T03:19:15.874Z,23.12
2023-10-13T03:20:15.821Z,23.12
2023-10-13T03:21:15.806Z,23.12
2023-10-13T03:22:16.448Z,23.10
2023-10-13T03:23:15.760Z,23.12
2023-10-13T03:24:15.781Z,23.12
2023-10-13T03:25:15.772Z,23.12
2023-10-13T03:26:15.727Z,23.10
2023-10-13T03:27:15.741Z,23.10
2023-10-13T03:28:15.702Z,23.10
2023-10-13T03:29:15.687Z,23.10
2023-10-13T03:30:15.687Z,23.09
2023-10-13T03:31:15.773Z,23.10
2023-10-13T03:32:15.709Z,23.09
2023-10-13T03:33:15.698Z,23.09
2023-10-13T03:34:15.708Z,23.07
2023-10-13T03:35:15.636Z,23.07
2023-10-13T03:36:15.604Z,23.07
2023-10-13T03:37:15.628Z,23.05
2023-10-13T03:38:15.640Z,23.07
2023-10-13T03:39:15.597Z,23.07
2023-10-13T03:40:15.625Z,23.07
2023-10-13T03:41:15.581Z,23.05
2023-10-13T03:42:15.579Z,23.05
2023-10-13T03:43:15.610Z,23.05
2023-10-13T03:44:15.542Z,23.05
2023-10-13T03:45:15.568Z,23.04
2023-10-13T03:46:15.551Z,23.04
2023-10-13T03:47:15.545Z,23.04
2023-10-13T03:48:15.673Z,23.04
2023-10-13T03:49:15.519Z,23.02
2023-10-13T03:50:15.519Z,23.04
2023-10-13T03:51:15.491Z,23.02
2023-10-13T03:52:15.492Z,23.02
2023-10-13T03:53:15.451Z,23.02
2023-10-13T03:54:15.438Z,23.02
2023-10-13T03:55:15.471Z,23.02
2023-10-13T03:56:15.457Z,23.00
2023-10-13T03:57:15.425Z,23.01
2023-10-13T03:58:15.442Z,23.00
2023-10-13T03:59:15.380Z,23.01
2023-10-13T04:00:15.399Z,23.00
2023-10-13T04:01:15.489Z,23.00
2023-10-13T04:02:15.457Z,23.00
2023-10-13T04:03:15.453Z,23.00
2023-10-13T04:04:15.369Z,23.00
2023-10-13T04:05:15.400Z,22.98
2023-10-13T04:06:15.334Z,22.97
2023-10-13T04:07:15.378Z,22.97
2023-10-13T04:08:15.325Z,22.98
2023-10-13T04:09:15.315Z,22.98
2023-10-13T04:10:15.325Z,22.98
2023-10-13T04:11:15.281Z,22.98
2023-10-13T04:12:15.289Z,22.97
2023-10-13T04:13:15.253Z,22.98
2023-10-13T04:14:15.204Z,22.97
2023-10-13T04:15:15.201Z,22.97
2023-10-13T04:16:15.280Z,22.97
2023-10-13T04:17:15.577Z,22.97
2023-10-13T04:18:15.268Z,22.97
2023-10-13T04:19:15.189Z,22.95
2023-10-13T04:20:15.140Z,22.95
2023-10-13T04:21:15.933Z,22.94
2023-10-13T04:22:15.312Z,22.94
2023-10-13T04:23:15.942Z,22.94
2023-10-13T04:24:15.081Z,22.94
2023-10-13T04:25:15.103Z,22.92
2023-10-13T04:26:15.052Z,22.94
2023-10-13T04:27:15.046Z,22.92
2023-10-13T04:28:15.934Z,22.92
2023-10-13T04:29:15.051Z,22.91
2023-10-13T04:30:15.955Z,22.92
2023-10-13T04:31:15.147Z,22.91
2023-10-13T04:32:16.442Z,22.91
2023-10-13T04:33:14.969Z,22.91
2023-10-13T04:34:15.023Z,22.91
2023-10-13T04:35:14.956Z,22.90
2023-10-13T04:36:15.165Z,22.91
2023-10-13T04:37:14.988Z,22.91
2023-10-13T04:38:14.942Z,22.91
2023-10-13T04:39:14.933Z,22.90
2023-10-13T04:40:14.968Z,22.90
2023-10-13T04:41:14.915Z,22.90
2023-10-13T04:42:14.903Z,22.90
2023-10-13T04:43:14.939Z,22.90
2023-10-13T04:44:14.877Z,22.88
2023-10-13T04:45:14.884Z,22.88
2023-10-13T04:46:14.969Z,22.86
2023-10-13T04:47:14.927Z,22.86
2023-10-13T04:48:14.955Z,22.86
2023-10-13T04:49:14.870Z,22.88
2023-10-13T04:50:14.831Z,22.86
2023-10-13T04:51:14.820Z,22.86
2023-10-13T04:52:14.855Z,22.86
2023-10-13T04:53:14.769Z,22.88
2023-10-13T04:54:15.310Z,22.85
2023-10-13T04:55:14.826Z,22.83
2023-10-13T04:56:14.731Z,22.85
2023-10-13T04:57:14.745Z,22.85
2023-10-13T04:58:14.832Z,22.83
2023-10-13T04:59:14.713Z,22.85
2023-10-13T05:00:14.704Z,22.85
2023-10-13T05:01:14.776Z,22.85
2023-10-13T05:02:14.758Z,22.83
2023-10-13T05:03:14.742Z,22.85
2023-10-13T05:04:14.859Z,22.85
2023-10-13T05:05:14.654Z,22.83
2023-10-13T05:06:14.664Z,22.82
2023-10-13T05:07:14.657Z,22.82
2023-10-13T05:08:14.668Z,22.82
2023-10-13T05:09:14.617Z,22.83
2023-10-13T05:10:14.616Z,22.82
2023-10-13T05:11:14.612Z,22.82
2023-10-13T05:12:14.619Z,22.82
2023-10-13T05:13:15.534Z,22.80
2023-10-13T05:14:15.453Z,22.82
2023-10-13T05:15:14.541Z,22.80
2023-10-13T05:16:14.664Z,22.80
2023-10-13T05:17:14.610Z,22.80
2023-10-13T05:18:14.558Z,22.80
2023-10-13T05:19:14.561Z,22.80
2023-10-13T05:20:14.532Z,22.80
2023-10-13T05:21:14.584Z,22.79
2023-10-13T05:22:14.522Z,22.77
2023-10-13T05:23:14.494Z,22.79
2023-10-13T05:24:14.479Z,22.79
2023-10-13T05:25:14.441Z,22.79
2023-10-13T05:26:14.416Z,22.77
2023-10-13T05:27:14.527Z,22.77
2023-10-13T05:28:26.395Z,22.76
2023-10-13T05:29:26.351Z,22.77
2023-10-13T05:30:14.425Z,22.76
2023-10-13T05:31:14.435Z,22.76
2023-10-13T05:32:14.574Z,22.76
2023-10-13T05:33:14.420Z,22.76
2023-10-13T05:34:14.452Z,22.76
2023-10-13T05:35:14.325Z,22.76
2023-10-13T05:36:14.354Z,22.76
2023-10-13T05:37:14.966Z,22.76
2023-10-13T05:38:14.523Z,22.76
2023-10-13T05:39:14.372Z,22.75
2023-10-13T05:40:14.333Z,22.76
2023-10-13T05:41:16.430Z,22.75
2023-10-13T05:42:14.291Z,22.75
2023-10-13T05:43:14.294Z,22.75
2023-10-13T05:44:14.973Z,22.75
2023-10-13T05:45:14.312Z,22.75
2023-10-13T05:46:14.358Z,22.75
2023-10-13T05:47:14.340Z,22.75
2023-10-13T05:48:14.343Z,22.75
2023-10-13T05:49:14.242Z,22.76
2023-10-13T05:50:14.909Z,22.75
2023-10-13T05:51:14.954Z,22.75
2023-10-13T05:52:14.208Z,22.75
2023-10-13T05:53:14.158Z,22.75
2023-10-13T05:54:14.173Z,22.75
2023-10-13T05:55:14.202Z,22.76
2023-10-13T05:56:14.200Z,22.73
2023-10-13T05:57:14.148Z,22.75
2023-10-13T05:58:14.972Z,22.75
2023-10-13T05:59:14.134Z,22.73
2023-10-13T06:00:14.126Z,22.75
2023-10-13T06:01:14.163Z,22.75
2023-10-13T06:02:15.031Z,22.75
2023-10-13T06:03:14.062Z,22.73
2023-10-13T06:04:14.254Z,22.75
2023-10-13T06:05:14.057Z,22.73
2023-10-13T06:06:14.033Z,22.73
2023-10-13T06:07:14.044Z,22.73
2023-10-13T06:08:14.036Z,22.75
2023-10-13T06:09:14.071Z,22.75
2023-10-13T06:10:14.992Z,22.75
2023-10-13T06:11:14.062Z,22.73
2023-10-13T06:12:14.018Z,22.73
2023-10-13T06:13:14.987Z,22.75
2023-10-13T06:14:13.954Z,22.76
2023-10-13T06:15:13.966Z,22.75
2023-10-13T06:16:13.983Z,22.76
2023-10-13T06:17:14.044Z,22.75
2023-10-13T06:18:15.474Z,22.76
2023-10-13T06:19:14.470Z,22.76
2023-10-13T06:20:13.865Z,22.77
2023-10-13T06:21:13.895Z,22.76
2023-10-13T06:22:13.977Z,22.76
2023-10-13T06:23:14.460Z,22.77
2023-10-13T06:24:13.825Z,22.77
2023-10-13T06:25:14.942Z,22.76
2023-10-13T06:26:15.368Z,22.77
2023-10-13T06:27:15.465Z,22.79
2023-10-13T06:28:13.839Z,22.79
2023-10-13T06:29:13.827Z,22.77
2023-10-13T06:30:13.811Z,22.77
2023-10-13T06:31:13.784Z,22.79
2023-10-13T06:32:15.310Z,22.79
2023-10-13T06:33:13.820Z,22.77
2023-10-13T06:34:13.795Z,22.79
2023-10-13T06:35:13.832Z,22.77
2023-10-13T06:36:13.822Z,22.79
2023-10-13T06:37:13.793Z,22.79
2023-10-13T06:38:13.680Z,22.80
2023-10-13T06:39:13.705Z,22.80
2023-10-13T06:40:13.718Z,22.80
2023-10-13T06:41:13.674Z,22.80
2023-10-13T06:42:13.673Z,22.80
2023-10-13T06:43:13.767Z,22.82
2023-10-13T06:44:13.640Z,22.82
2023-10-13T06:45:13.662Z,22.82
2023-10-13T06:46:14.446Z,22.82
2023-10-13T06:47:13.699Z,22.82
2023-10-13T06:48:13.614Z,22.83
2023-10-13T06:49:13.635Z,22.85
2023-10-13T06:50:13.566Z,22.83
2023-10-13T06:51:14.468Z,22.83
2023-10-13T06:52:13.620Z,22.83
2023-10-13T06:53:13.695Z,22.85
2023-10-13T06:54:13.686Z,22.85
2023-10-13T06:55:13.559Z,22.86
2023-10-13T06:56:13.520Z,22.86
2023-10-13T06:57:13.522Z,22.86
2023-10-13T06:58:13.603Z,22.86
2023-10-13T06:59:13.471Z,22.88
2023-10-13T07:00:13.471Z,22.86
2023-10-13T07:01:13.470Z,22.88
2023-10-13T07:02:27.520Z,22.88
2023-10-13T07:03:14.489Z,22.90
2023-10-13T07:04:13.561Z,22.88
2023-10-13T07:05:14.041Z,22.88
2023-10-13T07:06:13.515Z,22.90
2023-10-13T07:07:13.479Z,22.88
2023-10-13T07:08:13.411Z,22.90
2023-10-13T07:09:13.551Z,22.90
2023-10-13T07:10:15.010Z,22.91
2023-10-13T07:11:24.983Z,22.90
2023-10-13T07:12:13.384Z,22.91
2023-10-13T07:13:13.429Z,22.91
2023-10-13T07:14:13.990Z,22.90
2023-10-13T07:15:13.966Z,22.91
2023-10-13T07:16:29.118Z,22.91
2023-10-13T07:17:14.076Z,22.92
2023-10-13T07:18:14.119Z,22.91
2023-10-13T07:19:13.363Z,22.92
2023-10-13T07:20:14.126Z,22.94
2023-10-13T07:21:13.313Z,22.94
2023-10-13T07:22:14.075Z,22.94
2023-10-13T07:23:13.296Z,22.94
2023-10-13T07:24:13.974Z,22.94
2023-10-13T07:25:13.240Z,22.95
2023-10-13T07:26:13.241Z,22.94
2023-10-13T07:27:13.264Z,22.97
2023-10-13T07:28:13.993Z,22.95
2023-10-13T07:29:14.474Z,22.95
2023-10-13T07:30:14.628Z,22.95
2023-10-13T07:31:14.115Z,22.97
2023-10-13T07:32:13.276Z,22.97
2023-10-13T07:33:13.378Z,22.97
2023-10-13T07:34:14.594Z,22.98
2023-10-13T07:35:13.128Z,23.00
2023-10-13T07:36:13.139Z,23.00
2023-10-13T07:37:14.054Z,23.00
2023-10-13T07:38:13.103Z,23.00
2023-10-13T07:39:22.939Z,23.00
2023-10-13T07:40:13.152Z,23.01
2023-10-13T07:41:13.978Z,23.01
2023-10-13T07:42:13.050Z,23.01
2023-10-13T07:43:13.038Z,23.02
2023-10-13T07:44:13.032Z,23.02
2023-10-13T07:45:13.044Z,23.01
2023-10-13T07:46:13.107Z,23.02
2023-10-13T07:47:13.567Z,23.04
2023-10-13T07:48:13.042Z,23.05
2023-10-13T07:49:13.001Z,23.04
2023-10-13T07:50:12.974Z,23.05
2023-10-13T07:51:13.040Z,23.05
2023-10-13T07:52:14.068Z,23.05
2023-10-13T07:53:12.918Z,23.05
2023-10-13T07:54:12.929Z,23.05
2023-10-13T07:55:13.775Z,23.07
2023-10-13T07:56:13.138Z,23.07
2023-10-13T07:57:13.475Z,23.09
2023-10-13T07:58:12.911Z,23.09
2023-10-13T07:59:12.925Z,23.09
2023-10-13T08:00:13.548Z,23.07
2023-10-13T08:01:12.969Z,23.09
2023-10-13T08:02:13.087Z,23.10
2023-10-13T08:03:12.868Z,23.12
2023-10-13T08:04:13.600Z,23.09
2023-10-13T08:05:12.789Z,23.12
2023-10-13T08:06:12.875Z,23.12
2023-10-13T08:07:12.880Z,23.12
2023-10-13T08:08:12.737Z,23.13
2023-10-13T08:09:12.769Z,23.13
2023-10-13T08:10:12.724Z,23.13
2023-10-13T08:11:13.623Z,23.15
2023-10-13T08:12:12.729Z,23.15
2023-10-13T08:13:13.509Z,23.17
2023-10-13T08:14:18.667Z,23.16
2023-10-13T08:15:12.711Z,23.16
2023-10-13T08:16:12.802Z,23.16
2023-10-13T08:17:12.737Z,23.19
2023-10-13T08:18:12.685Z,23.19
2023-10-13T08:19:13.478Z,23.19
2023-10-13T08:20:12.628Z,23.19
2023-10-13T08:21:12.676Z,23.20
2023-10-13T08:22:13.749Z,23.20
2023-10-13T08:23:12.611Z,23.23
2023-10-13T08:24:12.627Z,23.23
2023-10-13T08:25:12.599Z,23.22
2023-10-13T08:26:13.479Z,23.25
2023-10-13T08:27:12.581Z,23.25
2023-10-13T08:28:12.558Z,23.27
2023-10-13T08:29:12.575Z,23.25
2023-10-13T08:30:13.494Z,23.27
2023-10-13T08:31:12.517Z,23.28
2023-10-13T08:32:12.645Z,23.28
2023-10-13T08:33:14.041Z,23.28
2023-10-13T08:35:12.482Z,23.32
2023-10-13T08:36:12.472Z,23.32
2023-10-13T08:37:12.982Z,23.32
2023-10-13T08:38:26.887Z,23.33
2023-10-13T08:39:12.486Z,23.35
2023-10-13T08:41:13.019Z,23.35
2023-10-13T08:42:12.494Z,23.38
2023-10-13T08:43:12.455Z,23.39
2023-10-13T08:44:12.444Z,23.39
2023-10-13T08:45:12.464Z,23.40
2023-10-13T08:46:13.682Z,23.40
2023-10-13T08:47:13.047Z,23.42
2023-10-13T08:48:12.369Z,23.42
2023-10-13T08:49:12.344Z,23.43
2023-10-13T08:50:12.363Z,23.46
2023-10-13T08:51:12.840Z,23.46
2023-10-13T08:53:12.390Z,23.47
2023-10-13T08:54:12.413Z,23.47
2023-10-13T08:55:12.279Z,23.48
2023-10-13T08:56:13.049Z,23.51
2023-10-13T08:57:12.263Z,23.51
2023-10-13T08:58:12.249Z,23.51
2023-10-13T08:59:15.498Z,23.51
2023-10-13T09:00:12.238Z,23.51
2023-10-13T09:01:12.271Z,23.54
2023-10-13T09:02:12.288Z,23.54
2023-10-13T09:03:13.589Z,23.55
2023-10-13T09:04:14.796Z,23.55
2023-10-13T09:05:13.012Z,23.57
2023-10-13T09:06:12.267Z,23.58
2023-10-13T09:07:13.504Z,23.60
2023-10-13T09:08:14.035Z,23.60
2023-10-13T09:09:12.173Z,23.60
2023-10-13T09:10:12.184Z,23.61
2023-10-13T09:11:13.048Z,23.60
2023-10-13T09:12:12.119Z,23.63
2023-10-13T09:13:12.074Z,23.63
2023-10-13T09:14:13.008Z,23.65
2023-10-13T09:15:12.088Z,23.65
2023-10-13T09:16:13.400Z,23.68
2023-10-13T09:17:12.120Z,23.68
2023-10-13T09:18:12.057Z,23.69
2023-10-13T09:19:13.706Z,23.70
2023-10-13T09:20:12.023Z,23.72
2023-10-13T09:21:11.988Z,23.72
2023-10-13T09:22:12.848Z,23.75
2023-10-13T09:23:13.014Z,23.75
2023-10-13T09:24:11.997Z,23.76
2023-10-13T09:25:12.027Z,23.78
2023-10-13T09:26:12.026Z,23.80
2023-10-13T09:27:11.925Z,23.80
2023-10-13T09:28:11.951Z,23.83
2023-10-13T09:29:11.892Z,23.84
2023-10-13T09:30:11.959Z,23.85
2023-10-13T09:31:11.912Z,23.87
2023-10-13T09:32:12.366Z,23.87
2023-10-13T09:33:11.869Z,23.87
2023-10-13T09:34:11.895Z,23.88
2023-10-13T09:35:12.500Z,23.91
2023-10-13T09:36:11.884Z,23.91
2023-10-13T09:37:11.839Z,23.91
2023-10-13T09:38:11.883Z,23.93
2023-10-13T09:39:11.824Z,23.93
2023-10-13T09:40:12.534Z,23.94
2023-10-13T09:41:11.865Z,23.94
2023-10-13T09:42:12.255Z,23.94
2023-10-13T09:43:11.810Z,23.95
2023-10-13T09:44:12.001Z,23.97
2023-10-13T09:45:11.767Z,23.98
2023-10-13T09:46:11.787Z,23.98
2023-10-13T09:47:11.836Z,24.02
2023-10-13T09:48:12.726Z,24.02
2023-10-13T09:49:11.706Z,24.02
2023-10-13T09:50:11.732Z,24.03
2023-10-13T09:51:11.762Z,24.05
2023-10-13T09:52:11.745Z,24.05
2023-10-13T09:53:11.647Z,24.05
2023-10-13T09:54:32.792Z,24.08
2023-10-13T09:55:11.688Z,24.08
2023-10-13T09:56:11.661Z,24.08
2023-10-13T09:57:11.658Z,24.09
2023-10-13T09:58:11.649Z,24.09
2023-10-13T09:59:11.609Z,24.10
2023-10-13T10:00:11.604Z,24.12
2023-10-13T10:01:11.710Z,24.12
2023-10-13T10:02:11.612Z,24.15
2023-10-13T10:03:11.643Z,24.16
2023-10-13T10:04:11.580Z,24.16
2023-10-13T10:05:11.622Z,24.18
2023-10-13T10:06:11.547Z,24.20
2023-10-13T10:07:11.583Z,24.20
2023-10-13T10:08:11.540Z,24.20
2023-10-13T10:09:11.546Z,24.21
2023-10-13T10:10:12.563Z,24.21
2023-10-13T10:11:11.484Z,24.22
2023-10-13T10:12:11.460Z,24.25
2023-10-13T10:13:11.504Z,24.25
2023-10-13T10:14:11.448Z,24.27
2023-10-13T10:15:11.452Z,24.27
2023-10-13T10:16:11.587Z,24.30
2023-10-13T10:17:11.501Z,24.30
2023-10-13T10:18:11.417Z,24.31
2023-10-13T10:19:11.411Z,24.31
2023-10-13T10:20:11.413Z,24.34
2023-10-13T10:21:11.557Z,24.35
2023-10-13T10:22:11.422Z,24.37
2023-10-13T10:23:11.390Z,24.37
2023-10-13T10:24:11.364Z,24.39
2023-10-13T10:25:11.338Z,24.40
2023-10-13T10:26:11.314Z,24.42
2023-10-13T10:27:11.363Z,24.43
2023-10-13T10:28:11.342Z,24.46
2023-10-13T10:29:11.299Z,24.46
2023-10-13T10:30:11.302Z,24.49
2023-10-13T10:31:11.282Z,24.49
2023-10-13T10:32:11.456Z,24.52
2023-10-13T10:33:12.091Z,24.52
2023-10-13T10:34:11.278Z,24.55
2023-10-13T10:35:11.255Z,24.57
2023-10-13T10:36:12.047Z,24.58
2023-10-13T10:37:12.000Z,24.57
2023-10-13T10:38:11.230Z,24.60
2023-10-13T10:39:11.203Z,24.60
2023-10-13T10:40:11.185Z,24.61
2023-10-13T10:41:11.216Z,24.61
2023-10-13T10:42:11.209Z,24.62
2023-10-13T10:43:29.643Z,24.62
2023-10-13T10:44:11.309Z,24.65
2023-10-13T10:45:11.202Z,24.67
2023-10-13T10:46:11.216Z,24.69
2023-10-13T10:47:11.244Z,24.73
2023-10-13T10:48:11.195Z,24.76
2023-10-13T10:49:11.160Z,24.78
2023-10-13T10:50:11.153Z,24.78
2023-10-13T10:51:11.132Z,24.80
2023-10-13T10:52:11.107Z,24.80
2023-10-13T10:53:11.173Z,24.81
2023-10-13T10:54:11.062Z,24.84
2023-10-13T10:55:11.054Z,24.84
2023-10-13T10:56:11.118Z,24.84
2023-10-13T10:57:11.017Z,24.84
2023-10-13T10:58:11.006Z,24.85
2023-10-13T10:59:11.050Z,24.85
2023-10-13T11:00:11.053Z,24.87
2023-10-13T11:01:11.032Z,24.88
2023-10-13T11:02:10.962Z,24.91
2023-10-13T11:03:11.008Z,24.93
2023-10-13T11:04:10.969Z,24.93
2023-10-13T11:05:11.248Z,24.96
2023-10-13T11:06:12.513Z,24.96
2023-10-13T11:07:10.931Z,24.99
2023-10-13T11:08:10.980Z,25.00
2023-10-13T11:09:11.847Z,25.03
2023-10-13T11:10:10.949Z,25.05
2023-10-13T11:11:10.944Z,25.08
2023-10-13T11:12:10.867Z,25.09
2023-10-13T11:13:10.895Z,25.09
2023-10-13T11:14:10.881Z,25.13
2023-10-13T11:15:11.574Z,25.13
2023-10-13T11:16:10.824Z,25.13
2023-10-13T11:17:10.893Z,25.14
2023-10-13T11:18:10.907Z,25.14
2023-10-13T11:19:10.808Z,25.14
2023-10-13T11:20:10.770Z,25.17
2023-10-13T11:21:11.512Z,25.17
2023-10-13T11:22:11.582Z,25.18
2023-10-13T11:23:10.770Z,25.20
2023-10-13T11:24:10.765Z,25.21
2023-10-13T11:25:10.838Z,25.23
2023-10-13T11:26:10.845Z,25.24
2023-10-13T11:27:10.781Z,25.24
2023-10-13T11:28:10.716Z,25.27
2023-10-13T11:29:10.676Z,25.30
2023-10-13T11:30:10.669Z,25.32
2023-10-13T11:31:10.665Z,25.33
2023-10-13T11:32:10.735Z,25.36
2023-10-13T11:33:10.777Z,25.38
2023-10-13T11:34:10.620Z,25.38
2023-10-13T11:35:10.602Z,25.40
2023-10-13T11:36:10.658Z,25.40
2023-10-13T11:37:10.642Z,25.42
2023-10-13T11:38:10.633Z,25.45
2023-10-13T11:39:12.525Z,25.45
2023-10-13T11:40:10.569Z,25.46
2023-10-13T11:41:11.437Z,25.46
2023-10-13T11:42:10.596Z,25.46
2023-10-13T11:43:11.542Z,25.47
2023-10-13T11:44:10.541Z,25.50
2023-10-13T11:45:10.587Z,25.52
2023-10-13T11:46:10.629Z,25.54
2023-10-13T11:47:10.596Z,25.55
2023-10-13T11:48:10.533Z,25.58
2023-10-13T11:49:10.467Z,25.60
2023-10-13T11:50:10.537Z,25.61
2023-10-13T11:51:10.504Z,25.62
2023-10-13T11:52:10.432Z,25.64
2023-10-13T11:53:10.440Z,25.67
2023-10-13T11:54:10.447Z,25.67
2023-10-13T11:55:10.437Z,25.69
2023-10-13T11:56:10.417Z,25.72
2023-10-13T11:57:11.018Z,25.72
2023-10-13T11:58:10.378Z,25.73
2023-10-13T11:59:10.359Z,25.73
2023-10-13T12:00:10.375Z,25.77
2023-10-13T12:01:11.042Z,25.79
2023-10-13T12:02:11.185Z,25.80
2023-10-13T12:03:10.444Z,25.83
2023-10-13T12:04:10.547Z,25.83
2023-10-13T12:05:10.369Z,25.85
2023-10-13T12:06:10.284Z,25.87
2023-10-13T12:07:10.286Z,25.90
2023-10-13T12:08:10.295Z,25.91
2023-10-13T12:09:10.324Z,25.91
2023-10-13T12:10:10.233Z,25.91
2023-10-13T12:11:10.237Z,25.92
2023-10-13T12:12:11.488Z,25.92
2023-10-13T12:13:10.254Z,25.94
2023-10-13T12:14:10.239Z,25.95
2023-10-13T12:15:10.308Z,25.97
2023-10-13T12:16:10.206Z,25.98
2023-10-13T12:17:10.232Z,25.98
2023-10-13T12:18:10.210Z,26.01
2023-10-13T12:19:11.024Z,26.01
2023-10-13T12:20:10.306Z,26.05
2023-10-13T12:21:10.134Z,26.06
2023-10-13T12:22:10.151Z,26.06
2023-10-13T12:23:10.114Z,26.07
2023-10-13T12:24:10.113Z,26.09
2023-10-13T12:25:10.103Z,26.09
2023-10-13T12:26:11.036Z,26.10
2023-10-13T12:27:10.088Z,26.09
2023-10-13T12:28:10.091Z,26.10
2023-10-13T12:29:10.095Z,26.13
2023-10-13T12:30:10.052Z,26.17
2023-10-13T12:31:10.127Z,26.17
2023-10-13T12:32:12.098Z,26.18
2023-10-13T12:33:10.291Z,26.20
2023-10-13T12:34:10.000Z,26.21
2023-10-13T12:35:10.059Z,26.23
2023-10-13T12:36:10.046Z,26.25
2023-10-13T12:37:09.962Z,26.26
2023-10-13T12:38:10.056Z,26.28
2023-10-13T12:39:09.961Z,26.28
2023-10-13T12:40:09.969Z,26.29
2023-10-13T12:41:21.340Z,26.29
2023-10-13T12:42:10.543Z,26.32
2023-10-13T12:43:09.938Z,26.32
2023-10-13T12:44:09.883Z,26.35
2023-10-13T12:45:09.952Z,26.35
2023-10-13T12:46:09.920Z,26.36
2023-10-13T12:47:10.125Z,26.36
2023-10-13T12:48:10.690Z,26.36
2023-10-13T12:49:10.564Z,26.39
2023-10-13T12:50:09.977Z,26.39
2023-10-13T12:51:09.859Z,26.40
2023-10-13T12:52:09.848Z,26.44
2023-10-13T12:53:10.436Z,26.43
2023-10-13T12:54:09.861Z,26.45
2023-10-13T12:55:09.779Z,26.45